createdAt,value
2022-08-16T00:00:03.614Z,28.11
2022-08-16T00:02:34.412Z,28.25
2022-08-16T00:05:02.831Z,28.45
2022-08-16T00:07:30.541Z,26.89
2022-08-16T00:09:59.052Z,28.09
2022-08-16T00:12:31.398Z,28.14
2022-08-16T00:15:01.714Z,26.50
2022-08-16T00:17:28.570Z,28.70
2022-08-16T00:20:15.612Z,29.57
2022-08-16T00:22:44.106Z,28.28
2022-08-16T00:25:15.406Z,29.01
2022-08-16T00:27:43.403Z,28.26
2022-08-16T00:30:19.457Z,28.47
2022-08-16T00:32:58.099Z,28.79
2022-08-16T00:35:34.903Z,28.86
2022-08-16T00:38:41.514Z,28.82
2022-08-16T00:40:55.297Z,28.06
2022-08-16T00:43:42.698Z,27.59
2022-08-16T00:46:33.766Z,28.11
2022-08-16T00:49:17.638Z,27.85
2022-08-16T00:51:55.086Z,27.66
2022-08-16T00:54:26.783Z,28.19
2022-08-16T00:57:00.056Z,26.98
2022-08-16T00:59:32.806Z,27.78
2022-08-16T01:02:01.142Z,26.34
2022-08-16T01:05:09.631Z,27.77
2022-08-16T01:07:50.407Z,27.59
2022-08-16T01:10:21.473Z,27.24
2022-08-16T01:13:05.242Z,27.30
2022-08-16T01:15:36.158Z,26.76
2022-08-16T01:18:05.901Z,27.33
2022-08-16T01:20:38.275Z,27.77
2022-08-16T01:23:18.635Z,27.57
2022-08-16T01:25:59.906Z,27.84
2022-08-16T01:28:39.011Z,27.81
2022-08-16T01:31:14.766Z,28.03
2022-08-16T01:33:44.511Z,28.81
2022-08-16T01:36:13.080Z,28.79
2022-08-16T01:38:51.309Z,28.17
2022-08-16T01:41:30.000Z,27.42
2022-08-16T01:44:00.993Z,27.10
2022-08-16T01:46:42.618Z,27.31
2022-08-16T01:49:15.715Z,27.98
2022-08-16T01:51:47.976Z,28.37
2022-08-16T01:54:30.918Z,26.32
2022-08-16T01:57:00.350Z,27.03
2022-08-16T01:59:29.115Z,27.43
2022-08-16T02:01:59.613Z,26.89
2022-08-16T02:04:48.816Z,27.44
2022-08-16T02:07:18.783Z,26.81
2022-08-16T02:09:58.667Z,26.94
2022-08-16T02:12:50.124Z,27.10
2022-08-16T02:15:25.210Z,27.05
2022-08-16T02:17:58.291Z,26.63
2022-08-16T02:20:27.799Z,28.00
2022-08-16T02:22:56.557Z,27.61
2022-08-16T02:25:24.778Z,27.41
2022-08-16T02:28:11.659Z,26.10
2022-08-16T02:30:50.528Z,25.83
2022-08-16T02:33:19.534Z,26.88
2022-08-16T02:35:55.178Z,26.83
2022-08-16T02:38:29.158Z,25.65
2022-08-16T02:41:01.763Z,27.51
2022-08-16T02:43:33.134Z,26.40
2022-08-16T02:46:07.381Z,25.51
2022-08-16T02:48:38.678Z,27.34
2022-08-16T02:51:10.622Z,25.06
2022-08-16T02:53:43.862Z,26.52
2022-08-16T02:56:16.908Z,26.98
2022-08-16T02:58:50.711Z,25.42
2022-08-16T03:01:24.924Z,26.49
2022-08-16T03:04:29.993Z,26.35
2022-08-16T03:06:56.374Z,25.81
2022-08-16T03:09:49.899Z,25.63
2022-08-16T03:12:21.390Z,26.03
2022-08-16T03:14:57.843Z,24.93
2022-08-16T03:17:32.185Z,24.62
2022-08-16T03:20:03.190Z,24.98
2022-08-16T03:22:37.533Z,26.00
2022-08-16T03:25:13.950Z,25.74
2022-08-16T03:27:51.887Z,25.69
2022-08-16T03:30:24.158Z,25.77
2022-08-16T03:32:58.126Z,24.97
2022-08-16T03:35:33.262Z,24.92
2022-08-16T03:38:32.528Z,25.45
2022-08-16T03:41:14.401Z,24.82
2022-08-16T03:43:55.883Z,26.28
2022-08-16T03:46:47.903Z,26.38
2022-08-16T03:49:15.677Z,26.09
2022-08-16T03:51:46.255Z,25.81
2022-08-16T03:54:28.578Z,26.61
2022-08-16T03:56:57.961Z,25.71
2022-08-16T03:59:30.273Z,25.87
2022-08-16T04:02:21.901Z,24.95
2022-08-16T04:04:51.924Z,24.10
2022-08-16T04:07:18.903Z,23.09
2022-08-16T04:09:47.484Z,25.27
2022-08-16T04:13:04.344Z,24.72
2022-08-16T04:15:02.998Z,24.81
2022-08-16T04:17:37.059Z,25.88
2022-08-16T04:20:23.874Z,26.11
2022-08-16T04:22:58.333Z,25.76
2022-08-16T04:25:27.545Z,24.62
2022-08-16T04:27:55.999Z,25.93
2022-08-16T04:30:31.690Z,26.36
2022-08-16T04:33:02.318Z,24.52
2022-08-16T04:35:34.528Z,25.42
2022-08-16T04:38:10.948Z,24.84
2022-08-16T04:40:50.583Z,25.05
2022-08-16T04:43:19.164Z,25.97
2022-08-16T04:45:47.249Z,25.92
2022-08-16T04:48:32.588Z,26.15
2022-08-16T04:51:11.560Z,25.46
2022-08-16T04:53:45.894Z,25.83
2022-08-16T04:56:16.531Z,25.83
2022-08-16T04:58:46.600Z,25.28
2022-08-16T05:01:17.983Z,25.77
2022-08-16T05:04:00.994Z,25.94
2022-08-16T05:06:41.989Z,26.02
2022-08-16T05:09:19.254Z,26.45
2022-08-16T05:11:53.225Z,27.24
2022-08-16T05:14:45.988Z,26.96
2022-08-16T05:17:12.876Z,26.09
2022-08-16T05:19:39.873Z,27.02
2022-08-16T05:22:18.340Z,26.60
2022-08-16T05:24:55.124Z,26.80
2022-08-16T05:27:23.191Z,25.85
2022-08-16T05:29:57.071Z,27.01
2022-08-16T05:32:34.107Z,27.11
2022-08-16T05:35:14.583Z,26.87
2022-08-16T05:37:59.822Z,27.56
2022-08-16T05:40:27.269Z,27.57
2022-08-16T05:42:55.614Z,27.58
2022-08-16T05:45:23.862Z,24.97
2022-08-16T05:48:00.384Z,25.79
2022-08-16T05:50:41.656Z,26.16
2022-08-16T05:53:10.055Z,27.23
2022-08-16T05:55:45.986Z,26.98
2022-08-16T05:58:31.970Z,26.49
2022-08-16T06:01:01.098Z,26.40
2022-08-16T06:03:30.901Z,24.79
2022-08-16T06:06:02.618Z,25.15
2022-08-16T06:08:42.336Z,24.10
2022-08-16T06:11:15.252Z,25.09
2022-08-16T06:13:48.303Z,25.51
2022-08-16T06:16:22.148Z,26.15
2022-08-16T06:18:54.778Z,28.20
2022-08-16T06:21:23.705Z,27.04
2022-08-16T06:23:57.181Z,28.07
2022-08-16T06:26:36.826Z,26.34
2022-08-16T06:29:08.249Z,27.69
2022-08-16T06:31:49.059Z,28.44
2022-08-16T06:34:31.568Z,28.20
2022-08-16T06:37:08.022Z,29.33
2022-08-16T06:39:49.707Z,29.47
2022-08-16T06:42:47.544Z,25.50
2022-08-16T06:45:43.202Z,29.89
2022-08-16T06:48:33.211Z,30.55
2022-08-16T06:51:04.789Z,30.68
2022-08-16T06:53:35.497Z,30.53
2022-08-16T06:56:14.794Z,29.89
2022-08-16T06:59:12.482Z,31.09
2022-08-16T07:01:54.372Z,27.77
2022-08-16T07:04:33.084Z,30.84
2022-08-16T07:07:14.588Z,28.67
2022-08-16T07:09:42.476Z,29.27
2022-08-16T07:12:09.700Z,29.80
2022-08-16T07:14:41.819Z,27.71
2022-08-16T07:17:12.904Z,29.61
2022-08-16T07:20:29.478Z,29.82
2022-08-16T07:22:52.575Z,29.90
2022-08-16T07:25:27.689Z,30.88
2022-08-16T07:27:55.106Z,32.22
2022-08-16T07:30:39.219Z,29.91
2022-08-16T07:33:52.502Z,30.27
2022-08-16T07:36:09.859Z,32.78
2022-08-16T07:38:42.672Z,30.21
2022-08-16T07:41:10.783Z,31.09
2022-08-16T07:43:43.648Z,29.73
2022-08-16T07:46:38.363Z,30.99
2022-08-16T07:49:05.050Z,31.93
2022-08-16T07:51:39.086Z,29.72
2022-08-16T07:54:10.719Z,28.59
2022-08-16T07:56:44.505Z,31.77
2022-08-16T07:59:11.526Z,30.47
2022-08-16T08:01:41.490Z,32.87
2022-08-16T08:04:13.004Z,32.55
2022-08-16T08:06:42.740Z,32.21
2022-08-16T08:09:17.006Z,33.38
2022-08-16T08:12:00.629Z,33.35
2022-08-16T08:14:35.264Z,29.87
2022-08-16T08:17:02.099Z,28.13
2022-08-16T08:19:32.351Z,28.80
2022-08-16T08:22:02.536Z,32.87
2022-08-16T08:24:43.840Z,31.05
2022-08-16T08:27:12.888Z,33.10
2022-08-16T08:30:50.354Z,32.43
2022-08-16T08:32:57.726Z,33.03
2022-08-16T08:35:27.108Z,33.50
2022-08-16T08:37:56.597Z,32.91
2022-08-16T08:40:28.103Z,34.47
2022-08-16T08:43:12.014Z,31.72
2022-08-16T08:45:48.600Z,31.94
2022-08-16T08:48:32.842Z,33.25
2022-08-16T08:51:08.912Z,31.51
2022-08-16T08:53:44.269Z,33.35
2022-08-16T08:56:23.008Z,31.72
2022-08-16T08:58:59.187Z,33.16
2022-08-16T09:01:42.972Z,31.70
2022-08-16T09:04:25.055Z,33.33
2022-08-16T09:06:54.177Z,31.66
2022-08-16T09:09:23.250Z,33.22
2022-08-16T09:12:06.638Z,32.02
2022-08-16T09:14:50.832Z,27.98
2022-08-16T09:17:45.271Z,31.99
2022-08-16T09:20:16.483Z,33.52
2022-08-16T09:22:44.312Z,33.30
2022-08-16T09:25:25.794Z,32.66
2022-08-16T09:27:58.070Z,32.12
2022-08-16T09:30:43.415Z,33.88
2022-08-16T09:33:14.601Z,32.16
2022-08-16T09:35:42.826Z,32.89
2022-08-16T09:38:12.377Z,31.20
2022-08-16T09:40:49.140Z,33.96
2022-08-16T09:43:53.063Z,34.24
2022-08-16T09:46:46.027Z,30.95
2022-08-16T09:48:56.582Z,32.96
2022-08-16T09:51:30.573Z,31.73
2022-08-16T09:53:57.751Z,32.01
2022-08-16T09:56:31.700Z,30.05
2022-08-16T09:59:03.276Z,33.23
2022-08-16T10:01:31.887Z,33.55
2022-08-16T10:04:01.711Z,33.72
2022-08-16T10:06:33.437Z,32.01
2022-08-16T10:09:11.244Z,31.98
2022-08-16T10:12:11.733Z,35.55
2022-08-16T10:14:46.238Z,36.01
2022-08-16T10:17:13.458Z,35.37
2022-08-16T10:19:40.295Z,33.52
2022-08-16T10:22:07.106Z,31.87
2022-08-16T10:24:34.063Z,33.47
2022-08-16T10:27:25.311Z,34.13
2022-08-16T10:30:00.870Z,33.90
2022-08-16T10:32:30.338Z,36.28
2022-08-16T10:34:57.792Z,35.37
2022-08-16T10:37:32.259Z,34.68
2022-08-16T10:40:28.492Z,34.52
2022-08-16T10:43:00.268Z,31.67
2022-08-16T10:45:36.466Z,34.40
2022-08-16T10:48:06.448Z,34.56
2022-08-16T10:50:53.337Z,33.16
2022-08-16T10:53:21.751Z,33.41
2022-08-16T10:55:57.523Z,35.80
2022-08-16T10:58:34.383Z,33.28
2022-08-16T11:03:57.427Z,36.08
2022-08-16T11:06:26.953Z,35.24
2022-08-16T11:14:30.736Z,33.79
2022-08-16T11:17:09.338Z,34.08
2022-08-16T11:22:42.221Z,31.99
2022-08-16T11:28:08.495Z,34.40
2022-08-16T11:30:39.203Z,33.72
2022-08-16T11:33:09.100Z,34.17
2022-08-16T11:38:51.883Z,34.01
2022-08-16T11:41:13.886Z,36.39
2022-08-16T11:43:42.022Z,33.89
2022-08-16T11:46:44.339Z,35.96
2022-08-16T11:48:59.850Z,32.89
2022-08-16T11:51:27.479Z,34.00
2022-08-16T11:53:54.581Z,34.59
2022-08-16T11:56:39.614Z,33.11
2022-08-16T11:59:08.903Z,36.10
2022-08-16T12:01:44.424Z,31.49
2022-08-16T12:04:23.196Z,35.32
2022-08-16T12:06:53.753Z,31.11
2022-08-16T12:09:22.488Z,32.49
2022-08-16T12:11:52.802Z,31.74
2022-08-16T12:14:22.845Z,33.57
2022-08-16T12:16:55.517Z,33.27
2022-08-16T12:19:35.123Z,30.90
2022-08-16T12:22:05.744Z,34.84
2022-08-16T12:24:47.973Z,32.90
2022-08-16T12:27:19.454Z,33.50
2022-08-16T12:29:46.204Z,31.91
2022-08-16T12:32:38.646Z,33.38
2022-08-16T12:35:00.127Z,33.66
2022-08-16T12:37:27.797Z,30.32
2022-08-16T12:39:56.828Z,35.24
2022-08-16T12:42:34.431Z,33.60
2022-08-16T12:45:10.158Z,36.72
2022-08-16T12:48:16.041Z,35.21
2022-08-16T12:50:43.566Z,35.39
2022-08-16T12:53:16.886Z,33.74
2022-08-16T12:55:44.959Z,32.90
2022-08-16T12:58:49.276Z,33.27
2022-08-16T13:01:03.462Z,29.53
2022-08-16T13:03:32.268Z,35.35
2022-08-16T13:06:08.269Z,34.89
2022-08-16T13:08:35.123Z,31.57
2022-08-16T13:11:04.706Z,32.77
2022-08-16T13:13:36.112Z,33.25
2022-08-16T13:16:15.133Z,35.00
2022-08-16T13:18:52.728Z,31.38
2022-08-16T13:21:23.385Z,31.45
2022-08-16T13:23:55.305Z,32.00
2022-08-16T13:26:24.357Z,35.86
2022-08-16T13:28:53.910Z,33.79
2022-08-16T13:31:20.714Z,35.23
2022-08-16T13:33:47.607Z,35.02
2022-08-16T13:36:32.153Z,37.32
2022-08-16T13:39:01.934Z,35.54
2022-08-16T13:41:30.141Z,36.58
2022-08-16T13:44:00.900Z,36.10
2022-08-16T13:46:36.849Z,35.72
2022-08-16T13:49:04.302Z,34.52
2022-08-16T13:51:31.605Z,33.57
2022-08-16T13:54:03.950Z,33.88
2022-08-16T13:56:38.837Z,34.74
2022-08-16T13:59:19.511Z,35.28
2022-08-16T14:01:59.762Z,33.44
2022-08-16T14:04:34.041Z,33.88
2022-08-16T14:07:04.392Z,35.48
2022-08-16T14:09:34.518Z,35.44
2022-08-16T14:12:09.527Z,35.54
2022-08-16T14:14:36.971Z,36.03
2022-08-16T14:17:04.562Z,36.08
2022-08-16T14:19:31.321Z,37.35
2022-08-16T14:22:14.203Z,35.47
2022-08-16T14:24:45.376Z,37.90
2022-08-16T14:27:16.990Z,36.43
2022-08-16T14:29:45.752Z,35.98
2022-08-16T14:32:33.359Z,35.47
2022-08-16T14:35:08.933Z,36.79
2022-08-16T14:37:37.199Z,34.74
2022-08-16T14:40:10.804Z,36.28
2022-08-16T14:42:40.968Z,38.15
2022-08-16T14:45:14.580Z,38.26
2022-08-16T14:47:42.151Z,35.37
2022-08-16T14:50:13.686Z,33.91
2022-08-16T14:52:56.634Z,32.93
2022-08-16T14:55:27.414Z,34.53
2022-08-16T14:57:54.955Z,36.28
2022-08-16T15:00:27.014Z,34.24
2022-08-16T15:03:02.343Z,34.04
2022-08-16T15:08:01.703Z,34.13
2022-08-16T15:10:29.361Z,35.24
2022-08-16T15:12:58.382Z,35.45
2022-08-16T15:15:29.173Z,37.45
2022-08-16T15:17:57.401Z,37.41
2022-08-16T15:20:29.173Z,36.92
2022-08-16T15:22:57.388Z,36.40
2022-08-16T15:25:34.501Z,34.37
2022-08-16T15:28:04.599Z,35.59
2022-08-16T15:30:58.089Z,32.83
2022-08-16T15:33:25.340Z,35.09
2022-08-16T15:35:57.891Z,33.78
2022-08-16T15:38:55.088Z,33.67
2022-08-16T15:41:48.623Z,36.95
2022-08-16T15:44:22.300Z,37.52
2022-08-16T15:46:59.784Z,34.68
2022-08-16T15:49:37.825Z,35.15
2022-08-16T15:52:29.134Z,34.77
2022-08-16T15:54:57.277Z,35.40
2022-08-16T15:57:26.627Z,34.39
2022-08-16T15:59:56.367Z,33.55
2022-08-16T16:02:38.635Z,37.71
2022-08-16T16:05:09.872Z,37.55
2022-08-16T16:07:40.755Z,37.51
2022-08-16T16:10:22.355Z,37.24
2022-08-16T16:12:58.084Z,34.82
2022-08-16T16:15:33.702Z,35.78
2022-08-16T16:18:05.260Z,36.55
2022-08-16T16:20:39.741Z,33.02
2022-08-16T16:23:10.347Z,33.78
2022-08-16T16:25:38.831Z,36.80
2022-08-16T16:28:12.845Z,33.18
2022-08-16T16:30:56.547Z,33.81
2022-08-16T16:33:26.710Z,31.85
2022-08-16T16:36:00.385Z,34.58
2022-08-16T16:38:30.994Z,33.26
2022-08-16T16:41:11.347Z,33.20
2022-08-16T16:43:41.706Z,32.99
2022-08-16T16:46:40.691Z,32.70
2022-08-16T16:48:56.874Z,31.82
2022-08-16T16:51:24.571Z,33.95
2022-08-16T16:53:56.621Z,34.29
2022-08-16T16:56:30.203Z,33.36
2022-08-16T16:59:04.813Z,32.85
2022-08-16T17:01:59.344Z,33.05
2022-08-16T17:04:32.517Z,32.94
2022-08-16T17:07:03.233Z,33.47
2022-08-16T17:09:30.427Z,32.80
2022-08-16T17:11:58.603Z,32.11
2022-08-16T17:14:33.180Z,31.83
2022-08-16T17:17:02.310Z,31.79
2022-08-16T17:19:31.799Z,32.18
2022-08-16T17:22:00.001Z,33.09
2022-08-16T17:24:31.427Z,32.84
2022-08-16T17:27:07.870Z,31.22
2022-08-16T17:29:42.885Z,31.63
2022-08-16T17:32:33.870Z,31.71
2022-08-16T17:35:08.565Z,30.41
2022-08-16T17:37:48.890Z,32.27
2022-08-16T17:40:38.041Z,31.17
2022-08-16T17:43:14.056Z,31.04
2022-08-16T17:45:42.575Z,30.39
2022-08-16T17:48:09.980Z,31.89
2022-08-16T17:50:37.561Z,30.63
2022-08-16T17:53:07.291Z,31.66
2022-08-16T17:55:38.153Z,31.01
2022-08-16T17:58:09.914Z,31.48
2022-08-16T18:00:52.277Z,32.56
2022-08-16T18:04:06.833Z,31.25
2022-08-16T18:06:23.231Z,30.64
2022-08-16T18:08:55.861Z,30.08
2022-08-16T18:11:27.833Z,29.93
2022-08-16T18:13:55.253Z,30.47
2022-08-16T18:16:22.806Z,30.62
2022-08-16T18:18:49.970Z,30.63
2022-08-16T18:21:35.638Z,30.17
2022-08-16T18:24:02.878Z,31.11
2022-08-16T18:26:30.020Z,30.41
2022-08-16T18:28:57.021Z,29.57
2022-08-16T18:31:25.354Z,28.66
2022-08-16T18:33:55.509Z,28.93
2022-08-16T18:36:24.515Z,29.28
2022-08-16T18:38:52.526Z,29.65
2022-08-16T18:41:22.003Z,29.98
2022-08-16T18:44:23.968Z,29.70
2022-08-16T18:46:36.251Z,29.43
2022-08-16T18:49:03.774Z,31.00
2022-08-16T18:51:32.712Z,31.22
2022-08-16T18:53:59.894Z,30.64
2022-08-16T18:59:30.500Z,30.08
2022-08-16T19:04:48.984Z,29.83
2022-08-16T19:07:29.751Z,29.70
2022-08-16T19:09:59.622Z,28.50
2022-08-16T19:12:38.660Z,30.05
2022-08-16T19:15:14.090Z,28.60
2022-08-16T19:17:41.437Z,29.10
2022-08-16T19:20:11.076Z,29.56
2022-08-16T19:23:02.389Z,29.69
2022-08-16T19:25:46.955Z,27.91
2022-08-16T19:28:49.450Z,28.47
2022-08-16T19:31:04.856Z,29.31
2022-08-16T19:33:32.624Z,29.43
2022-08-16T19:36:00.349Z,29.40
2022-08-16T19:38:27.195Z,28.66
2022-08-16T19:40:54.247Z,28.03
2022-08-16T19:43:22.021Z,28.49
2022-08-16T19:45:49.699Z,29.03
2022-08-16T19:48:16.810Z,26.16
2022-08-16T19:50:43.670Z,28.43
2022-08-16T19:53:19.217Z,28.68
2022-08-16T19:55:47.706Z,28.45
2022-08-16T19:58:15.527Z,28.20
2022-08-16T20:00:43.620Z,26.81
2022-08-16T20:03:18.305Z,28.04
2022-08-16T20:05:45.399Z,27.81
2022-08-16T20:08:13.851Z,28.51
2022-08-16T20:10:45.297Z,28.93
2022-08-16T20:13:21.289Z,27.62
2022-08-16T20:15:50.113Z,28.16
2022-08-16T20:18:24.502Z,27.58
2022-08-16T20:20:52.481Z,26.22
2022-08-16T20:23:24.493Z,26.63
2022-08-16T20:25:56.064Z,27.83
2022-08-16T20:28:40.633Z,26.89
2022-08-16T20:31:12.460Z,28.36
2022-08-16T20:33:40.585Z,28.65
2022-08-16T20:36:07.887Z,27.08
2022-08-16T20:38:35.407Z,27.45
2022-08-16T20:41:02.402Z,27.85
2022-08-16T20:43:29.582Z,26.65
2022-08-16T20:45:56.432Z,26.25
2022-08-16T20:48:23.203Z,25.42
2022-08-16T20:50:50.188Z,24.34
2022-08-16T20:53:17.051Z,24.66
2022-08-16T20:55:44.835Z,24.96
2022-08-16T20:58:11.883Z,24.20
2022-08-16T21:00:38.787Z,25.20
2022-08-16T21:03:07.451Z,25.64
2022-08-16T21:05:34.618Z,27.20
2022-08-16T21:08:02.610Z,25.84
2022-08-16T21:10:50.170Z,26.93
2022-08-16T21:13:17.521Z,27.13
2022-08-16T21:15:44.672Z,27.58
2022-08-16T21:18:11.521Z,26.44
2022-08-16T21:20:38.311Z,27.07
2022-08-16T21:23:07.794Z,26.39
2022-08-16T21:25:37.261Z,27.78
2022-08-16T21:28:40.138Z,27.24
2022-08-16T21:30:57.856Z,26.76
2022-08-16T21:33:24.779Z,27.00
2022-08-16T21:35:52.525Z,25.65
2022-08-16T21:38:30.061Z,26.46
2022-08-16T21:40:59.280Z,27.09
2022-08-16T21:43:31.710Z,27.13
2022-08-16T21:46:00.226Z,25.03
2022-08-16T21:48:33.792Z,24.84
2022-08-16T21:51:15.371Z,23.65
2022-08-16T21:53:44.252Z,24.34
2022-08-16T21:56:16.479Z,26.32
2022-08-16T21:58:53.297Z,25.31
2022-08-16T22:01:23.149Z,26.83
2022-08-16T22:04:35.566Z,26.07
2022-08-16T22:06:39.447Z,26.95
2022-08-16T22:09:07.887Z,26.07
2022-08-16T22:11:34.692Z,26.54
2022-08-16T22:14:01.904Z,25.91
2022-08-16T22:16:31.412Z,25.45
2022-08-16T22:18:58.658Z,26.12
2022-08-16T22:21:26.471Z,26.71
2022-08-16T22:23:57.199Z,26.63
2022-08-16T22:26:31.755Z,26.52
2022-08-16T22:29:01.065Z,25.61
2022-08-16T22:31:28.686Z,23.87
2022-08-16T22:33:56.896Z,24.42
2022-08-16T22:36:24.045Z,25.21
2022-08-16T22:38:58.031Z,23.99
2022-08-16T22:41:26.677Z,24.39
2022-08-16T22:43:53.618Z,26.10
2022-08-16T22:46:20.950Z,24.94
2022-08-16T22:48:50.593Z,23.53
2022-08-16T22:51:22.823Z,22.69
2022-08-16T22:53:50.426Z,23.99
2022-08-16T22:56:17.664Z,22.81
2022-08-16T22:58:45.770Z,24.99
2022-08-16T23:01:13.943Z,25.60
2022-08-16T23:03:41.597Z,25.81
2022-08-16T23:06:10.472Z,25.27
2022-08-16T23:08:40.940Z,25.21
2022-08-16T23:11:21.253Z,25.44
2022-08-16T23:13:54.379Z,24.86
2022-08-16T23:16:33.731Z,25.00
2022-08-16T23:19:10.136Z,23.01
2022-08-16T23:21:39.985Z,24.51
2022-08-16T23:24:08.598Z,25.35
2022-08-16T23:26:47.870Z,23.56
2022-08-16T23:29:24.085Z,24.78
2022-08-16T23:31:59.118Z,25.08
2022-08-16T23:34:27.555Z,24.30
2022-08-16T23:36:55.238Z,24.63
2022-08-16T23:39:22.350Z,25.86
2022-08-16T23:41:49.525Z,25.34
2022-08-16T23:44:55.801Z,24.70
2022-08-16T23:47:06.012Z,24.41
2022-08-16T23:49:57.445Z,25.23
2022-08-16T23:52:54.025Z,24.50
2022-08-16T23:55:07.838Z,24.33
2022-08-16T23:57:34.623Z,24.51
